sensor_id;sensor_type;location;lat;lon;timestamp;P1;durP1;ratioP1;P2;durP2;ratioP2
3054;SDS011;1537;52.018;8.542;2024-01-16T00:02:54;10.60;;;2.83;;
3054;SDS011;1537;52.018;8.542;2024-01-16T00:06:19;6.33;;;2.60;;
3054;SDS011;1537;52.018;8.542;2024-01-16T00:09:42;11.33;;;2.43;;
3054;SDS011;1537;52.018;8.542;2024-01-16T00:13:07;7.70;;;2.20;;
3054;SDS011;1537;52.018;8.542;2024-01-16T00:16:31;9.53;;;2.40;;
3054;SDS011;1537;52.018;8.542;2024-01-16T00:19:54;6.00;;;2.57;;
3054;SDS011;1537;52.018;8.542;2024-01-16T00:23:23;5.03;;;2.30;;
3054;SDS011;1537;52.018;8.542;2024-01-16T00:26:47;7.37;;;2.10;;
3054;SDS011;1537;52.018;8.542;2024-01-16T00:30:12;5.47;;;2.10;;
3054;SDS011;1537;52.018;8.542;2024-01-16T00:33:36;7.97;;;1.90;;
3054;SDS011;1537;52.018;8.542;2024-01-16T00:37:00;5.87;;;1.60;;
3054;SDS011;1537;52.018;8.542;2024-01-16T00:40:25;7.93;;;2.20;;
3054;SDS011;1537;52.018;8.542;2024-01-16T00:43:49;7.63;;;2.53;;
3054;SDS011;1537;52.018;8.542;2024-01-16T00:47:12;5.67;;;2.10;;
3054;SDS011;1537;52.018;8.542;2024-01-16T00:50:36;7.00;;;1.80;;
3054;SDS011;1537;52.018;8.542;2024-01-16T00:54:00;8.80;;;2.10;;
3054;SDS011;1537;52.018;8.542;2024-01-16T00:57:25;5.43;;;2.20;;
3054;SDS011;1537;52.018;8.542;2024-01-16T01:00:48;7.00;;;2.73;;
3054;SDS011;1537;52.018;8.542;2024-01-16T01:04:12;5.13;;;2.40;;
3054;SDS011;1537;52.018;8.542;2024-01-16T01:07:36;11.90;;;3.40;;
3054;SDS011;1537;52.018;8.542;2024-01-16T01:10:59;6.23;;;2.17;;
3054;SDS011;1537;52.018;8.542;2024-01-16T01:14:25;9.33;;;2.80;;
3054;SDS011;1537;52.018;8.542;2024-01-16T01:17:51;6.03;;;2.80;;
3054;SDS011;1537;52.018;8.542;2024-01-16T01:21:16;5.53;;;2.27;;
3054;SDS011;1537;52.018;8.542;2024-01-16T01:24:40;10.87;;;4.20;;
3054;SDS011;1537;52.018;8.542;2024-01-16T01:28:03;6.60;;;2.90;;
3054;SDS011;1537;52.018;8.542;2024-01-16T01:31:29;8.93;;;2.80;;
3054;SDS011;1537;52.018;8.542;2024-01-16T01:34:52;6.17;;;3.00;;
3054;SDS011;1537;52.018;8.542;2024-01-16T01:38:16;8.97;;;2.77;;
3054;SDS011;1537;52.018;8.542;2024-01-16T01:41:41;9.33;;;4.13;;
3054;SDS011;1537;52.018;8.542;2024-01-16T01:45:05;10.97;;;3.30;;
3054;SDS011;1537;52.018;8.542;2024-01-16T01:48:30;11.10;;;3.40;;
3054;SDS011;1537;52.018;8.542;2024-01-16T01:51:55;9.23;;;3.80;;
3054;SDS011;1537;52.018;8.542;2024-01-16T01:55:19;10.50;;;3.63;;
3054;SDS011;1537;52.018;8.542;2024-01-16T01:58:43;15.13;;;4.00;;
3054;SDS011;1537;52.018;8.542;2024-01-16T02:02:09;14.80;;;3.73;;
3054;SDS011;1537;52.018;8.542;2024-01-16T02:05:35;9.83;;;4.10;;
3054;SDS011;1537;52.018;8.542;2024-01-16T02:09:01;13.93;;;4.63;;
3054;SDS011;1537;52.018;8.542;2024-01-16T02:12:28;13.37;;;4.53;;
3054;SDS011;1537;52.018;8.542;2024-01-16T02:15:52;14.93;;;4.60;;
3054;SDS011;1537;52.018;8.542;2024-01-16T02:19:16;10.90;;;5.57;;
3054;SDS011;1537;52.018;8.542;2024-01-16T02:22:41;13.80;;;5.33;;
3054;SDS011;1537;52.018;8.542;2024-01-16T02:26:12;21.37;;;5.90;;
3054;SDS011;1537;52.018;8.542;2024-01-16T02:29:40;12.57;;;4.93;;
3054;SDS011;1537;52.018;8.542;2024-01-16T02:33:04;12.50;;;4.67;;
3054;SDS011;1537;52.018;8.542;2024-01-16T02:36:28;13.30;;;5.70;;
3054;SDS011;1537;52.018;8.542;2024-01-16T02:39:53;12.47;;;5.10;;
3054;SDS011;1537;52.018;8.542;2024-01-16T02:43:18;13.27;;;5.33;;
3054;SDS011;1537;52.018;8.542;2024-01-16T02:46:41;17.67;;;5.17;;
3054;SDS011;1537;52.018;8.542;2024-01-16T02:50:06;11.50;;;5.57;;
3054;SDS011;1537;52.018;8.542;2024-01-16T02:53:31;8.50;;;5.17;;
3054;SDS011;1537;52.018;8.542;2024-01-16T02:56:55;9.83;;;5.67;;
3054;SDS011;1537;52.018;8.542;2024-01-16T03:00:20;11.03;;;4.80;;
3054;SDS011;1537;52.018;8.542;2024-01-16T03:03:44;13.00;;;4.53;;
3054;SDS011;1537;52.018;8.542;2024-01-16T03:07:08;10.57;;;5.20;;
3054;SDS011;1537;52.018;8.542;2024-01-16T03:10:31;8.93;;;4.43;;
3054;SDS011;1537;52.018;8.542;2024-01-16T03:13:55;14.53;;;6.43;;
3054;SDS011;1537;52.018;8.542;2024-01-16T03:17:20;13.33;;;5.20;;
3054;SDS011;1537;52.018;8.542;2024-01-16T03:20:44;10.50;;;5.07;;
3054;SDS011;1537;52.018;8.542;2024-01-16T03:24:08;16.20;;;5.77;;
3054;SDS011;1537;52.018;8.542;2024-01-16T03:27:32;9.43;;;4.87;;
3054;SDS011;1537;52.018;8.542;2024-01-16T03:30:56;16.10;;;4.57;;
3054;SDS011;1537;52.018;8.542;2024-01-16T03:34:21;9.23;;;4.87;;
3054;SDS011;1537;52.018;8.542;2024-01-16T03:37:46;13.30;;;6.13;;
3054;SDS011;1537;52.018;8.542;2024-01-16T03:41:10;19.00;;;5.47;;
3054;SDS011;1537;52.018;8.542;2024-01-16T03:44:37;15.13;;;6.80;;
3054;SDS011;1537;52.018;8.542;2024-01-16T03:48:02;12.50;;;5.07;;
3054;SDS011;1537;52.018;8.542;2024-01-16T03:51:28;14.87;;;5.30;;
3054;SDS011;1537;52.018;8.542;2024-01-16T03:54:52;9.90;;;4.93;;
3054;SDS011;1537;52.018;8.542;2024-01-16T03:58:16;16.43;;;7.13;;
3054;SDS011;1537;52.018;8.542;2024-01-16T04:01:39;12.13;;;6.17;;
3054;SDS011;1537;52.018;8.542;2024-01-16T04:05:05;13.60;;;6.10;;
3054;SDS011;1537;52.018;8.542;2024-01-16T04:08:30;10.03;;;7.23;;
3054;SDS011;1537;52.018;8.542;2024-01-16T04:11:54;13.63;;;6.40;;
3054;SDS011;1537;52.018;8.542;2024-01-16T04:15:17;17.30;;;6.90;;
3054;SDS011;1537;52.018;8.542;2024-01-16T04:18:44;11.73;;;6.40;;
3054;SDS011;1537;52.018;8.542;2024-01-16T04:22:08;13.80;;;7.10;;
3054;SDS011;1537;52.018;8.542;2024-01-16T04:25:33;11.70;;;6.67;;
3054;SDS011;1537;52.018;8.542;2024-01-16T04:28:56;16.53;;;6.63;;
3054;SDS011;1537;52.018;8.542;2024-01-16T04:32:20;14.40;;;7.77;;
3054;SDS011;1537;52.018;8.542;2024-01-16T04:35:44;15.00;;;7.73;;
3054;SDS011;1537;52.018;8.542;2024-01-16T04:39:08;11.00;;;6.80;;
3054;SDS011;1537;52.018;8.542;2024-01-16T04:42:33;13.43;;;7.67;;
3054;SDS011;1537;52.018;8.542;2024-01-16T04:45:56;11.77;;;6.80;;
3054;SDS011;1537;52.018;8.542;2024-01-16T04:49:24;17.60;;;7.27;;
3054;SDS011;1537;52.018;8.542;2024-01-16T04:52:48;14.90;;;7.23;;
3054;SDS011;1537;52.018;8.542;2024-01-16T04:56:15;20.80;;;7.77;;
3054;SDS011;1537;52.018;8.542;2024-01-16T04:59:40;16.93;;;8.70;;
3054;SDS011;1537;52.018;8.542;2024-01-16T05:03:04;14.27;;;7.07;;
3054;SDS011;1537;52.018;8.542;2024-01-16T05:06:28;16.00;;;7.13;;
3054;SDS011;1537;52.018;8.542;2024-01-16T05:09:52;16.33;;;8.00;;
3054;SDS011;1537;52.018;8.542;2024-01-16T05:13:17;11.70;;;6.43;;
3054;SDS011;1537;52.018;8.542;2024-01-16T05:16:42;12.73;;;7.93;;
3054;SDS011;1537;52.018;8.542;2024-01-16T05:20:06;14.37;;;6.90;;
3054;SDS011;1537;52.018;8.542;2024-01-16T05:23:32;14.87;;;6.53;;
3054;SDS011;1537;52.018;8.542;2024-01-16T05:26:56;13.90;;;5.80;;
3054;SDS011;1537;52.018;8.542;2024-01-16T05:30:19;11.63;;;6.77;;
3054;SDS011;1537;52.018;8.542;2024-01-16T05:33:44;8.90;;;6.50;;
3054;SDS011;1537;52.018;8.542;2024-01-16T05:37:08;12.10;;;5.37;;
3054;SDS011;1537;52.018;8.542;2024-01-16T05:40:32;12.60;;;5.87;;
3054;SDS011;1537;52.018;8.542;2024-01-16T05:43:56;12.63;;;7.67;;
3054;SDS011;1537;52.018;8.542;2024-01-16T05:47:19;9.93;;;6.63;;
3054;SDS011;1537;52.018;8.542;2024-01-16T05:50:47;11.10;;;5.13;;
3054;SDS011;1537;52.018;8.542;2024-01-16T05:54:11;11.10;;;5.87;;
3054;SDS011;1537;52.018;8.542;2024-01-16T05:57:34;12.83;;;5.97;;
3054;SDS011;1537;52.018;8.542;2024-01-16T06:00:59;10.47;;;6.23;;
3054;SDS011;1537;52.018;8.542;2024-01-16T06:04:22;14.57;;;5.83;;
3054;SDS011;1537;52.018;8.542;2024-01-16T06:07:47;10.47;;;5.43;;
3054;SDS011;1537;52.018;8.542;2024-01-16T06:11:11;14.73;;;5.80;;
3054;SDS011;1537;52.018;8.542;2024-01-16T06:14:36;12.30;;;5.27;;
3054;SDS011;1537;52.018;8.542;2024-01-16T06:17:59;9.67;;;5.30;;
3054;SDS011;1537;52.018;8.542;2024-01-16T06:21:23;13.20;;;6.13;;
3054;SDS011;1537;52.018;8.542;2024-01-16T06:24:50;8.40;;;5.87;;
3054;SDS011;1537;52.018;8.542;2024-01-16T06:28:13;10.13;;;6.27;;
3054;SDS011;1537;52.018;8.542;2024-01-16T06:31:37;12.43;;;7.07;;
3054;SDS011;1537;52.018;8.542;2024-01-16T06:35:00;9.77;;;5.70;;
3054;SDS011;1537;52.018;8.542;2024-01-16T06:38:24;14.93;;;6.50;;
3054;SDS011;1537;52.018;8.542;2024-01-16T06:41:49;14.23;;;7.67;;
3054;SDS011;1537;52.018;8.542;2024-01-16T06:45:13;12.33;;;6.93;;
3054;SDS011;1537;52.018;8.542;2024-01-16T06:48:37;12.70;;;7.03;;
3054;SDS011;1537;52.018;8.542;2024-01-16T06:52:01;14.63;;;6.90;;
3054;SDS011;1537;52.018;8.542;2024-01-16T06:55:25;14.60;;;8.50;;
3054;SDS011;1537;52.018;8.542;2024-01-16T06:58:50;12.43;;;7.67;;
3054;SDS011;1537;52.018;8.542;2024-01-16T07:02:14;15.47;;;7.50;;
3054;SDS011;1537;52.018;8.542;2024-01-16T07:05:38;16.33;;;8.33;;
3054;SDS011;1537;52.018;8.542;2024-01-16T07:09:02;11.80;;;7.87;;
3054;SDS011;1537;52.018;8.542;2024-01-16T07:12:27;15.53;;;9.30;;
3054;SDS011;1537;52.018;8.542;2024-01-16T07:15:52;14.90;;;7.30;;
3054;SDS011;1537;52.018;8.542;2024-01-16T07:19:16;22.00;;;7.73;;
3054;SDS011;1537;52.018;8.542;2024-01-16T07:22:39;10.03;;;6.60;;
3054;SDS011;1537;52.018;8.542;2024-01-16T07:26:03;14.13;;;7.80;;
3054;SDS011;1537;52.018;8.542;2024-01-16T07:29:27;11.53;;;7.73;;
3054;SDS011;1537;52.018;8.542;2024-01-16T07:32:52;15.83;;;7.53;;
3054;SDS011;1537;52.018;8.542;2024-01-16T07:36:16;11.90;;;7.50;;
3054;SDS011;1537;52.018;8.542;2024-01-16T07:39:40;15.40;;;7.80;;
3054;SDS011;1537;52.018;8.542;2024-01-16T07:43:04;15.47;;;8.67;;
3054;SDS011;1537;52.018;8.542;2024-01-16T07:46:27;13.07;;;7.60;;
3054;SDS011;1537;52.018;8.542;2024-01-16T07:49:52;18.40;;;9.77;;
3054;SDS011;1537;52.018;8.542;2024-01-16T07:53:16;13.37;;;7.50;;
3054;SDS011;1537;52.018;8.542;2024-01-16T07:56:40;17.87;;;8.43;;
3054;SDS011;1537;52.018;8.542;2024-01-16T08:00:04;14.63;;;6.80;;
3054;SDS011;1537;52.018;8.542;2024-01-16T08:03:33;13.10;;;8.43;;
3054;SDS011;1537;52.018;8.542;2024-01-16T08:06:58;14.70;;;7.50;;
3054;SDS011;1537;52.018;8.542;2024-01-16T08:10:22;12.30;;;7.33;;
3054;SDS011;1537;52.018;8.542;2024-01-16T08:13:46;16.33;;;8.60;;
3054;SDS011;1537;52.018;8.542;2024-01-16T08:17:10;13.80;;;6.67;;
3054;SDS011;1537;52.018;8.542;2024-01-16T08:20:33;15.73;;;7.97;;
3054;SDS011;1537;52.018;8.542;2024-01-16T08:23:58;11.07;;;7.67;;
3054;SDS011;1537;52.018;8.542;2024-01-16T08:27:22;13.07;;;6.97;;
3054;SDS011;1537;52.018;8.542;2024-01-16T08:30:46;14.67;;;7.63;;
3054;SDS011;1537;52.018;8.542;2024-01-16T08:34:10;13.30;;;7.70;;
3054;SDS011;1537;52.018;8.542;2024-01-16T08:37:34;12.57;;;7.70;;
3054;SDS011;1537;52.018;8.542;2024-01-16T08:40:59;19.10;;;8.27;;
3054;SDS011;1537;52.018;8.542;2024-01-16T08:44:22;12.80;;;7.60;;
3054;SDS011;1537;52.018;8.542;2024-01-16T08:47:46;17.67;;;8.37;;
3054;SDS011;1537;52.018;8.542;2024-01-16T08:51:10;11.43;;;6.83;;
3054;SDS011;1537;52.018;8.542;2024-01-16T08:54:35;10.50;;;6.20;;
3054;SDS011;1537;52.018;8.542;2024-01-16T08:58:00;9.07;;;6.00;;
3054;SDS011;1537;52.018;8.542;2024-01-16T09:01:24;15.60;;;6.47;;
3054;SDS011;1537;52.018;8.542;2024-01-16T09:04:48;11.03;;;5.50;;
3054;SDS011;1537;52.018;8.542;2024-01-16T09:08:12;11.67;;;6.43;;
3054;SDS011;1537;52.018;8.542;2024-01-16T09:11:36;12.30;;;6.30;;
3054;SDS011;1537;52.018;8.542;2024-01-16T09:15:01;11.43;;;6.43;;
3054;SDS011;1537;52.018;8.542;2024-01-16T09:18:25;10.50;;;6.37;;
3054;SDS011;1537;52.018;8.542;2024-01-16T09:21:49;14.73;;;5.73;;
3054;SDS011;1537;52.018;8.542;2024-01-16T09:25:13;10.60;;;5.90;;
3054;SDS011;1537;52.018;8.542;2024-01-16T09:28:37;9.73;;;5.80;;
3054;SDS011;1537;52.018;8.542;2024-01-16T09:32:02;12.80;;;6.40;;
3054;SDS011;1537;52.018;8.542;2024-01-16T09:35:26;14.73;;;7.80;;
3054;SDS011;1537;52.018;8.542;2024-01-16T09:38:50;10.33;;;6.17;;
3054;SDS011;1537;52.018;8.542;2024-01-16T09:42:14;12.50;;;6.70;;
3054;SDS011;1537;52.018;8.542;2024-01-16T09:45:39;13.37;;;6.80;;
3054;SDS011;1537;52.018;8.542;2024-01-16T09:49:04;10.97;;;6.40;;
3054;SDS011;1537;52.018;8.542;2024-01-16T09:52:28;12.77;;;6.90;;
3054;SDS011;1537;52.018;8.542;2024-01-16T09:55:53;16.20;;;7.60;;
3054;SDS011;1537;52.018;8.542;2024-01-16T09:59:21;16.80;;;8.03;;
3054;SDS011;1537;52.018;8.542;2024-01-16T10:02:45;12.10;;;7.20;;
3054;SDS011;1537;52.018;8.542;2024-01-16T10:06:11;12.63;;;7.90;;
3054;SDS011;1537;52.018;8.542;2024-01-16T10:09:37;15.07;;;9.53;;
3054;SDS011;1537;52.018;8.542;2024-01-16T10:13:01;13.00;;;8.53;;
3054;SDS011;1537;52.018;8.542;2024-01-16T10:16:54;15.50;;;10.97;;
3054;SDS011;1537;52.018;8.542;2024-01-16T10:20:31;19.57;;;11.20;;
3054;SDS011;1537;52.018;8.542;2024-01-16T10:23:56;19.50;;;12.10;;
3054;SDS011;1537;52.018;8.542;2024-01-16T10:27:33;17.93;;;12.63;;
3054;SDS011;1537;52.018;8.542;2024-01-16T10:31:01;19.43;;;12.67;;
3054;SDS011;1537;52.018;8.542;2024-01-16T10:34:26;19.83;;;13.83;;
3054;SDS011;1537;52.018;8.542;2024-01-16T10:37:50;21.93;;;15.90;;
3054;SDS011;1537;52.018;8.542;2024-01-16T10:41:17;24.67;;;17.27;;
3054;SDS011;1537;52.018;8.542;2024-01-16T10:44:45;24.00;;;15.93;;
3054;SDS011;1537;52.018;8.542;2024-01-16T10:48:16;25.40;;;16.80;;
3054;SDS011;1537;52.018;8.542;2024-01-16T10:51:41;26.77;;;18.20;;
3054;SDS011;1537;52.018;8.542;2024-01-16T10:55:07;23.03;;;15.70;;
3054;SDS011;1537;52.018;8.542;2024-01-16T10:58:33;26.07;;;17.53;;
3054;SDS011;1537;52.018;8.542;2024-01-16T11:01:59;34.03;;;20.00;;
3054;SDS011;1537;52.018;8.542;2024-01-16T11:05:24;23.30;;;18.80;;
3054;SDS011;1537;52.018;8.542;2024-01-16T11:08:52;23.13;;;18.03;;
3054;SDS011;1537;52.018;8.542;2024-01-16T11:12:17;19.70;;;15.83;;
3054;SDS011;1537;52.018;8.542;2024-01-16T11:15:45;26.03;;;17.80;;
3054;SDS011;1537;52.018;8.542;2024-01-16T11:19:10;24.63;;;15.40;;
3054;SDS011;1537;52.018;8.542;2024-01-16T11:22:54;20.93;;;15.80;;
3054;SDS011;1537;52.018;8.542;2024-01-16T11:26:25;19.40;;;12.60;;
3054;SDS011;1537;52.018;8.542;2024-01-16T11:29:50;19.33;;;14.47;;
3054;SDS011;1537;52.018;8.542;2024-01-16T11:37:09;17.20;;;12.47;;
3054;SDS011;1537;52.018;8.542;2024-01-16T11:40:34;20.23;;;10.20;;
3054;SDS011;1537;52.018;8.542;2024-01-16T11:43:58;20.17;;;12.53;;
3054;SDS011;1537;52.018;8.542;2024-01-16T11:47:23;12.90;;;10.17;;
3054;SDS011;1537;52.018;8.542;2024-01-16T11:50:48;15.23;;;9.70;;
3054;SDS011;1537;52.018;8.542;2024-01-16T11:54:15;12.17;;;8.40;;
3054;SDS011;1537;52.018;8.542;2024-01-16T11:57:47;22.13;;;12.87;;
3054;SDS011;1537;52.018;8.542;2024-01-16T12:01:27;14.63;;;8.33;;
3054;SDS011;1537;52.018;8.542;2024-01-16T12:04:54;15.53;;;7.00;;
3054;SDS011;1537;52.018;8.542;2024-01-16T12:08:28;17.73;;;9.27;;
3054;SDS011;1537;52.018;8.542;2024-01-16T12:11:57;11.53;;;6.87;;
3054;SDS011;1537;52.018;8.542;2024-01-16T12:15:26;11.87;;;6.27;;
3054;SDS011;1537;52.018;8.542;2024-01-16T12:18:50;63.17;;;35.73;;
3054;SDS011;1537;52.018;8.542;2024-01-16T12:22:26;13.90;;;7.80;;
3054;SDS011;1537;52.018;8.542;2024-01-16T12:25:53;41.43;;;37.03;;
3054;SDS011;1537;52.018;8.542;2024-01-16T12:29:25;14.53;;;9.70;;
3054;SDS011;1537;52.018;8.542;2024-01-16T12:32:48;16.87;;;7.17;;
3054;SDS011;1537;52.018;8.542;2024-01-16T12:36:26;13.00;;;6.80;;
3054;SDS011;1537;52.018;8.542;2024-01-16T12:39:49;11.60;;;4.83;;
3054;SDS011;1537;52.018;8.542;2024-01-16T12:43:15;13.23;;;7.43;;
3054;SDS011;1537;52.018;8.542;2024-01-16T12:46:40;9.43;;;5.00;;
3054;SDS011;1537;52.018;8.542;2024-01-16T12:50:04;14.23;;;9.80;;
3054;SDS011;1537;52.018;8.542;2024-01-16T12:53:29;13.47;;;6.60;;
3054;SDS011;1537;52.018;8.542;2024-01-16T12:56:57;17.93;;;5.93;;
3054;SDS011;1537;52.018;8.542;2024-01-16T13:00:23;9.83;;;6.10;;
3054;SDS011;1537;52.018;8.542;2024-01-16T13:03:48;11.90;;;5.50;;
3054;SDS011;1537;52.018;8.542;2024-01-16T13:07:15;13.67;;;5.60;;
3054;SDS011;1537;52.018;8.542;2024-01-16T13:10:40;12.47;;;6.10;;
3054;SDS011;1537;52.018;8.542;2024-01-16T13:14:03;17.47;;;6.00;;
3054;SDS011;1537;52.018;8.542;2024-01-16T13:17:29;11.20;;;6.57;;
3054;SDS011;1537;52.018;8.542;2024-01-16T13:20:53;14.80;;;8.70;;
3054;SDS011;1537;52.018;8.542;2024-01-16T13:24:18;16.17;;;7.40;;
3054;SDS011;1537;52.018;8.542;2024-01-16T13:27:45;16.20;;;6.80;;
3054;SDS011;1537;52.018;8.542;2024-01-16T13:31:09;9.67;;;6.00;;
3054;SDS011;1537;52.018;8.542;2024-01-16T13:34:34;12.33;;;7.73;;
3054;SDS011;1537;52.018;8.542;2024-01-16T13:37:58;14.33;;;5.27;;
3054;SDS011;1537;52.018;8.542;2024-01-16T13:41:21;11.47;;;5.77;;
3054;SDS011;1537;52.018;8.542;2024-01-16T13:44:45;13.43;;;7.50;;
3054;SDS011;1537;52.018;8.542;2024-01-16T13:48:09;19.13;;;6.60;;
3054;SDS011;1537;52.018;8.542;2024-01-16T13:51:35;8.10;;;5.47;;
3054;SDS011;1537;52.018;8.542;2024-01-16T13:54:58;11.83;;;6.13;;
3054;SDS011;1537;52.018;8.542;2024-01-16T13:58:24;13.93;;;7.23;;
3054;SDS011;1537;52.018;8.542;2024-01-16T14:01:48;11.83;;;5.97;;
3054;SDS011;1537;52.018;8.542;2024-01-16T14:05:12;11.00;;;5.63;;
3054;SDS011;1537;52.018;8.542;2024-01-16T14:08:40;14.67;;;5.70;;
3054;SDS011;1537;52.018;8.542;2024-01-16T14:12:03;21.07;;;6.80;;
3054;SDS011;1537;52.018;8.542;2024-01-16T14:15:30;11.77;;;6.90;;
3054;SDS011;1537;52.018;8.542;2024-01-16T14:18:54;10.60;;;5.93;;
3054;SDS011;1537;52.018;8.542;2024-01-16T14:22:18;11.77;;;5.47;;
3054;SDS011;1537;52.018;8.542;2024-01-16T14:25:43;11.10;;;6.30;;
3054;SDS011;1537;52.018;8.542;2024-01-16T14:29:07;10.87;;;5.43;;
3054;SDS011;1537;52.018;8.542;2024-01-16T14:32:31;10.33;;;5.67;;
3054;SDS011;1537;52.018;8.542;2024-01-16T14:35:54;8.77;;;5.13;;
3054;SDS011;1537;52.018;8.542;2024-01-16T14:39:21;18.37;;;6.37;;
3054;SDS011;1537;52.018;8.542;2024-01-16T14:42:49;12.50;;;5.60;;
3054;SDS011;1537;52.018;8.542;2024-01-16T14:46:15;14.93;;;6.77;;
3054;SDS011;1537;52.018;8.542;2024-01-16T14:49:38;10.90;;;6.13;;
3054;SDS011;1537;52.018;8.542;2024-01-16T14:53:02;10.60;;;6.00;;
3054;SDS011;1537;52.018;8.542;2024-01-16T14:56:27;11.40;;;7.27;;
3054;SDS011;1537;52.018;8.542;2024-01-16T14:59:53;15.07;;;6.63;;
3054;SDS011;1537;52.018;8.542;2024-01-16T15:03:17;14.03;;;6.77;;
3054;SDS011;1537;52.018;8.542;2024-01-16T15:06:41;13.40;;;6.27;;
3054;SDS011;1537;52.018;8.542;2024-01-16T15:10:05;16.73;;;6.67;;
3054;SDS011;1537;52.018;8.542;2024-01-16T15:13:31;14.03;;;6.47;;
3054;SDS011;1537;52.018;8.542;2024-01-16T15:16:56;9.03;;;6.20;;
3054;SDS011;1537;52.018;8.542;2024-01-16T15:20:19;11.17;;;7.00;;
3054;SDS011;1537;52.018;8.542;2024-01-16T15:23:43;13.90;;;7.47;;
3054;SDS011;1537;52.018;8.542;2024-01-16T15:27:07;9.87;;;6.43;;
3054;SDS011;1537;52.018;8.542;2024-01-16T15:30:30;12.77;;;7.60;;
3054;SDS011;1537;52.018;8.542;2024-01-16T15:33:56;14.83;;;7.63;;
3054;SDS011;1537;52.018;8.542;2024-01-16T15:37:20;11.33;;;7.33;;
3054;SDS011;1537;52.018;8.542;2024-01-16T15:40:44;13.90;;;8.07;;
3054;SDS011;1537;52.018;8.542;2024-01-16T15:44:07;11.87;;;7.23;;
3054;SDS011;1537;52.018;8.542;2024-01-16T15:47:33;13.23;;;7.97;;
3054;SDS011;1537;52.018;8.542;2024-01-16T15:50:58;13.43;;;8.60;;
3054;SDS011;1537;52.018;8.542;2024-01-16T15:54:22;12.10;;;8.00;;
3054;SDS011;1537;52.018;8.542;2024-01-16T15:57:46;18.47;;;10.07;;
3054;SDS011;1537;52.018;8.542;2024-01-16T16:01:10;12.50;;;7.03;;
3054;SDS011;1537;52.018;8.542;2024-01-16T16:04:34;10.37;;;7.10;;
3054;SDS011;1537;52.018;8.542;2024-01-16T16:08:00;11.50;;;8.00;;
3054;SDS011;1537;52.018;8.542;2024-01-16T16:11:25;14.47;;;8.03;;
3054;SDS011;1537;52.018;8.542;2024-01-16T16:14:49;13.07;;;8.00;;
3054;SDS011;1537;52.018;8.542;2024-01-16T16:18:12;10.80;;;6.60;;
3054;SDS011;1537;52.018;8.542;2024-01-16T16:21:36;11.10;;;7.50;;
3054;SDS011;1537;52.018;8.542;2024-01-16T16:25:01;15.00;;;7.33;;
3054;SDS011;1537;52.018;8.542;2024-01-16T16:28:26;13.63;;;8.13;;
3054;SDS011;1537;52.018;8.542;2024-01-16T16:31:51;15.60;;;10.10;;
3054;SDS011;1537;52.018;8.542;2024-01-16T16:35:14;18.73;;;8.50;;
3054;SDS011;1537;52.018;8.542;2024-01-16T16:38:40;10.23;;;7.33;;
3054;SDS011;1537;52.018;8.542;2024-01-16T16:42:08;15.13;;;7.53;;
3054;SDS011;1537;52.018;8.542;2024-01-16T16:45:32;13.77;;;8.10;;
3054;SDS011;1537;52.018;8.542;2024-01-16T16:48:55;12.67;;;7.83;;
3054;SDS011;1537;52.018;8.542;2024-01-16T16:52:19;13.80;;;8.30;;
3054;SDS011;1537;52.018;8.542;2024-01-16T16:55:43;12.83;;;7.17;;
3054;SDS011;1537;52.018;8.542;2024-01-16T16:59:10;19.43;;;7.63;;
3054;SDS011;1537;52.018;8.542;2024-01-16T17:02:34;12.33;;;8.30;;
3054;SDS011;1537;52.018;8.542;2024-01-16T17:05:58;12.87;;;8.47;;
3054;SDS011;1537;52.018;8.542;2024-01-16T17:09:22;16.73;;;10.93;;
3054;SDS011;1537;52.018;8.542;2024-01-16T17:12:46;16.70;;;8.87;;
3054;SDS011;1537;52.018;8.542;2024-01-16T17:16:12;14.57;;;9.13;;
3054;SDS011;1537;52.018;8.542;2024-01-16T17:19:39;12.10;;;8.50;;
3054;SDS011;1537;52.018;8.542;2024-01-16T17:23:03;13.57;;;8.80;;
3054;SDS011;1537;52.018;8.542;2024-01-16T17:26:26;14.63;;;8.97;;
3054;SDS011;1537;52.018;8.542;2024-01-16T17:29:52;31.10;;;19.20;;
3054;SDS011;1537;52.018;8.542;2024-01-16T17:33:17;14.57;;;8.10;;
3054;SDS011;1537;52.018;8.542;2024-01-16T17:36:42;17.30;;;10.10;;
3054;SDS011;1537;52.018;8.542;2024-01-16T17:40:08;14.57;;;10.13;;
3054;SDS011;1537;52.018;8.542;2024-01-16T17:43:34;16.37;;;10.83;;
3054;SDS011;1537;52.018;8.542;2024-01-16T17:46:57;18.70;;;11.20;;
3054;SDS011;1537;52.018;8.542;2024-01-16T17:50:22;15.53;;;11.30;;
3054;SDS011;1537;52.018;8.542;2024-01-16T17:53:46;16.50;;;11.50;;
3054;SDS011;1537;52.018;8.542;2024-01-16T17:57:10;18.77;;;12.00;;
3054;SDS011;1537;52.018;8.542;2024-01-16T18:00:34;18.47;;;12.17;;
3054;SDS011;1537;52.018;8.542;2024-01-16T18:03:58;20.57;;;12.20;;
3054;SDS011;1537;52.018;8.542;2024-01-16T18:07:23;18.20;;;12.27;;
3054;SDS011;1537;52.018;8.542;2024-01-16T18:10:47;18.33;;;11.63;;
3054;SDS011;1537;52.018;8.542;2024-01-16T18:14:15;15.77;;;12.70;;
3054;SDS011;1537;52.018;8.542;2024-01-16T18:17:39;22.17;;;14.03;;
3054;SDS011;1537;52.018;8.542;2024-01-16T18:21:04;17.40;;;11.93;;
3054;SDS011;1537;52.018;8.542;2024-01-16T18:24:36;14.30;;;11.10;;
3054;SDS011;1537;52.018;8.542;2024-01-16T18:28:00;17.23;;;12.23;;
3054;SDS011;1537;52.018;8.542;2024-01-16T18:31:23;17.83;;;11.57;;
3054;SDS011;1537;52.018;8.542;2024-01-16T18:34:47;16.70;;;11.73;;
3054;SDS011;1537;52.018;8.542;2024-01-16T18:38:11;20.03;;;13.83;;
3054;SDS011;1537;52.018;8.542;2024-01-16T18:41:37;26.53;;;19.57;;
3054;SDS011;1537;52.018;8.542;2024-01-16T18:45:00;15.93;;;11.77;;
3054;SDS011;1537;52.018;8.542;2024-01-16T18:48:26;17.83;;;11.97;;
3054;SDS011;1537;52.018;8.542;2024-01-16T18:51:51;20.77;;;12.47;;
3054;SDS011;1537;52.018;8.542;2024-01-16T18:55:18;18.47;;;11.47;;
3054;SDS011;1537;52.018;8.542;2024-01-16T18:58:43;18.20;;;12.90;;
3054;SDS011;1537;52.018;8.542;2024-01-16T19:02:08;20.23;;;13.23;;
3054;SDS011;1537;52.018;8.542;2024-01-16T19:05:31;22.73;;;14.23;;
3054;SDS011;1537;52.018;8.542;2024-01-16T19:08:57;19.00;;;13.30;;
3054;SDS011;1537;52.018;8.542;2024-01-16T19:12:21;23.30;;;14.13;;
3054;SDS011;1537;52.018;8.542;2024-01-16T19:15:47;21.40;;;15.43;;
3054;SDS011;1537;52.018;8.542;2024-01-16T19:19:12;35.70;;;14.93;;
3054;SDS011;1537;52.018;8.542;2024-01-16T19:22:37;25.23;;;15.33;;
3054;SDS011;1537;52.018;8.542;2024-01-16T19:26:02;22.83;;;14.90;;
3054;SDS011;1537;52.018;8.542;2024-01-16T19:29:26;25.07;;;15.00;;
3054;SDS011;1537;52.018;8.542;2024-01-16T19:32:51;26.10;;;14.27;;
3054;SDS011;1537;52.018;8.542;2024-01-16T19:36:15;20.97;;;13.47;;
3054;SDS011;1537;52.018;8.542;2024-01-16T19:39:39;23.03;;;14.57;;
3054;SDS011;1537;52.018;8.542;2024-01-16T19:43:06;19.23;;;14.20;;
3054;SDS011;1537;52.018;8.542;2024-01-16T19:46:30;18.73;;;14.17;;
3054;SDS011;1537;52.018;8.542;2024-01-16T19:49:58;20.90;;;13.60;;
3054;SDS011;1537;52.018;8.542;2024-01-16T19:53:23;25.33;;;13.57;;
3054;SDS011;1537;52.018;8.542;2024-01-16T19:56:46;17.40;;;13.20;;
3054;SDS011;1537;52.018;8.542;2024-01-16T20:00:12;14.23;;;11.00;;
3054;SDS011;1537;52.018;8.542;2024-01-16T20:03:36;15.70;;;11.90;;
3054;SDS011;1537;52.018;8.542;2024-01-16T20:07:04;14.87;;;10.93;;
3054;SDS011;1537;52.018;8.542;2024-01-16T20:10:28;19.07;;;12.40;;
3054;SDS011;1537;52.018;8.542;2024-01-16T20:13:52;18.73;;;11.90;;
3054;SDS011;1537;52.018;8.542;2024-01-16T20:17:16;15.77;;;11.80;;
3054;SDS011;1537;52.018;8.542;2024-01-16T20:20:41;17.97;;;12.07;;
3054;SDS011;1537;52.018;8.542;2024-01-16T20:24:07;19.00;;;12.80;;
3054;SDS011;1537;52.018;8.542;2024-01-16T20:27:31;19.10;;;11.93;;
3054;SDS011;1537;52.018;8.542;2024-01-16T20:30:57;18.00;;;12.43;;
3054;SDS011;1537;52.018;8.542;2024-01-16T20:34:35;15.67;;;12.87;;
3054;SDS011;1537;52.018;8.542;2024-01-16T20:37:59;16.20;;;12.40;;
3054;SDS011;1537;52.018;8.542;2024-01-16T20:41:24;14.47;;;10.77;;
3054;SDS011;1537;52.018;8.542;2024-01-16T20:44:47;15.40;;;11.50;;
3054;SDS011;1537;52.018;8.542;2024-01-16T20:48:11;15.10;;;11.00;;
3054;SDS011;1537;52.018;8.542;2024-01-16T20:51:35;22.53;;;11.20;;
3054;SDS011;1537;52.018;8.542;2024-01-16T20:54:59;16.43;;;12.40;;
3054;SDS011;1537;52.018;8.542;2024-01-16T20:58:28;17.23;;;10.73;;